Time;durP1;ratioP1;P1;durP2;ratioP2;P2;SDS_P1;SDS_P2;PMS_P1;PMS_P2;Temp;Humidity;BMP_temperature;BMP_pressure;BME280_temperature;BME280_humidity;BME280_pressure;Samples;Min_cycle;Max_cycle;Signal;HPM_P1;HPM_P2
2023/05/05 00:00:14;;;;;;;6.38;5.75;;;;;;;9.93;100.00;63019.31;5006605;28;20229;-74
2023/05/05 00:02:42;;;;;;;7.22;6.53;;;;;;;9.94;100.00;63020.84;5024309;28;20226;-74
2023/05/05 00:05:10;;;;;;;7.45;6.53;;;;;;;9.89;100.00;63010.06;5023243;28;20241;-73
2023/05/05 00:07:38;;;;;;;6.57;5.97;;;;;;;9.90;100.00;63016.72;5017362;28;20230;-73
2023/05/05 00:10:07;;;;;;;6.93;5.82;;;;;;;9.96;100.00;63022.94;5016288;28;20209;-74
2023/05/05 00:12:35;;;;;;;7.95;6.95;;;;;;;9.91;100.00;63015.22;5004090;28;20462;-73
2023/05/05 00:15:02;;;;;;;9.10;5.97;;;;;;;9.90;100.00;63014.19;5005878;28;20500;-74
2023/05/05 00:17:30;;;;;;;10.15;6.53;;;;;;;9.86;100.00;63012.06;5005132;28;20243;-73
2023/05/05 00:19:58;;;;;;;8.95;6.30;;;;;;;9.86;100.00;63015.13;5023241;28;20195;-74
2023/05/05 00:22:25;;;;;;;8.70;6.20;;;;;;;9.82;100.00;63008.44;5023202;28;20222;-74
2023/05/05 00:24:54;;;;;;;6.93;6.22;;;;;;;9.75;100.00;63001.19;5026024;28;20234;-74
2023/05/05 00:27:20;;;;;;;7.00;6.20;;;;;;;9.75;100.00;63001.19;5005048;28;20595;-73
2023/05/05 00:29:48;;;;;;;7.35;5.97;;;;;;;9.73;100.00;62996.09;5005673;28;20199;-74
2023/05/05 00:32:15;;;;;;;6.00;5.32;;;;;;;9.69;100.00;62991.94;5007709;28;20436;-74
2023/05/05 00:34:42;;;;;;;7.25;5.20;;;;;;;9.65;100.00;62992.88;5018259;28;20222;-73
2023/05/05 00:37:10;;;;;;;5.03;4.53;;;;;;;9.54;100.00;62979.50;5027953;28;20246;-73
2023/05/05 00:39:37;;;;;;;5.53;4.70;;;;;;;9.50;100.00;62974.84;5026617;28;20198;-74
2023/05/05 00:42:05;;;;;;;5.00;4.63;;;;;;;9.41;100.00;62960.97;5026267;28;20226;-74
2023/05/05 00:44:38;;;;;;;4.90;4.50;;;;;;;9.41;100.00;62968.59;5025630;28;20203;-74
2023/05/05 00:47:05;;;;;;;4.93;4.53;;;;;;;9.42;100.00;62971.66;5028489;28;20222;-75
2023/05/05 00:49:33;;;;;;;5.22;4.53;;;;;;;9.38;100.00;62960.41;5026252;28;20195;-73
2023/05/05 00:52:00;;;;;;;4.78;4.38;;;;;;;9.30;100.00;62959.78;5025798;28;20376;-74
2023/05/05 00:54:27;;;;;;;5.05;4.63;;;;;;;9.27;100.00;62956.66;5008205;28;20192;-74
2023/05/05 00:56:54;;;;;;;4.57;4.22;;;;;;;9.29;100.00;62956.19;5006843;28;20287;-74
2023/05/05 00:59:23;;;;;;;5.10;4.65;;;;;;;9.24;100.00;62945.94;5007848;28;20207;-75
2023/05/05 01:01:50;;;;;;;5.07;4.60;;;;;;;9.14;100.00;62938.13;5013071;28;20218;-73
2023/05/05 01:04:18;;;;;;;5.20;4.70;;;;;;;9.08;100.00;62929.91;5026428;28;20207;-74
2023/05/05 01:06:53;;;;;;;4.28;3.97;;;;;;;9.04;100.00;62933.38;5026261;28;20237;-74
2023/05/05 01:09:30;;;;;;;4.57;4.15;;;;;;;9.08;100.00;62934.47;5030909;28;20198;-74
2023/05/05 01:12:02;;;;;;;5.63;5.10;;;;;;;9.07;100.00;62936.50;5018865;28;20303;-73
2023/05/05 01:14:39;;;;;;;5.95;5.25;;;;;;;9.01;100.00;62927.75;5006912;28;20238;-73
2023/05/05 01:17:14;;;;;;;6.25;4.55;;;;;;;9.05;100.00;62931.38;5021985;28;20226;-73
2023/05/05 01:19:57;;;;;;;8.27;5.30;;;;;;;9.04;100.00;62925.28;5021612;28;20250;-74
2023/05/05 01:22:31;;;;;;;6.50;5.40;;;;;;;9.00;100.00;62921.13;5005635;28;20294;-73
2023/05/05 01:25:22;;;;;;;7.32;5.32;;;;;;;9.02;100.00;62931.34;5006894;28;20491;-73
2023/05/05 01:28:00;;;;;;;5.35;4.95;;;;;;;8.95;100.00;62921.56;5007807;28;20551;-74
2023/05/05 01:31:09;;;;;;;7.75;5.50;;;;;;;8.90;100.00;62915.88;5022966;28;20245;-73
2023/05/05 01:33:44;;;;;;;7.53;5.68;;;;;;;8.89;100.00;62912.81;5025197;28;20211;-74
2023/05/05 01:36:21;;;;;;;5.68;5.13;;;;;;;8.86;100.00;62911.72;5028193;28;20250;-74
2023/05/05 01:38:55;;;;;;;6.03;5.45;;;;;;;8.87;100.00;62915.31;5025393;28;20206;-73
2023/05/05 01:41:28;;;;;;;6.00;5.28;;;;;;;8.88;100.00;62916.88;5035834;28;20218;-73
2023/05/05 01:44:01;;;;;;;7.20;5.03;;;;;;;8.80;100.00;62903.00;5008399;28;20206;-74
2023/05/05 01:46:28;;;;;;;5.43;4.95;;;;;;;8.83;100.00;62909.16;5006663;28;20239;-75
2023/05/05 01:48:58;;;;;;;7.25;5.43;;;;;;;8.78;100.00;62903.47;5020886;28;20194;-74
2023/05/05 01:51:28;;;;;;;5.97;5.40;;;;;;;8.78;100.00;62900.94;5027376;28;20265;-73
2023/05/05 01:53:59;;;;;;;7.00;5.60;;;;;;;8.79;100.00;62905.03;5026297;28;20534;-74
2023/05/05 01:56:28;;;;;;;5.32;4.80;;;;;;;8.73;100.00;62898.81;5015950;28;20223;-75
2023/05/05 01:58:56;;;;;;;5.75;5.25;;;;;;;8.74;100.00;62899.34;5007867;28;20195;-73
2023/05/05 02:01:26;;;;;;;7.90;5.97;;;;;;;8.76;100.00;62899.38;5005020;28;20211;-74
2023/05/05 02:03:54;;;;;;;8.27;5.70;;;;;;;8.74;100.00;62894.78;5006267;28;20407;-73
2023/05/05 02:06:24;;;;;;;5.60;5.10;;;;;;;8.81;100.00;62906.56;5019923;28;20280;-74
2023/05/05 02:08:53;;;;;;;5.60;5.10;;;;;;;8.84;100.00;62907.66;5026093;28;20273;-74
2023/05/05 02:11:21;;;;;;;5.10;4.60;;;;;;;8.92;100.00;62915.91;5029301;28;20233;-75
2023/05/05 02:13:49;;;;;;;5.15;4.75;;;;;;;9.00;100.00;62923.66;5020902;28;20245;-75
2023/05/05 02:16:18;;;;;;;4.75;4.35;;;;;;;9.06;100.00;62932.41;5004923;28;20223;-73
2023/05/05 02:18:47;;;;;;;4.85;4.47;;;;;;;9.12;100.00;62933.53;5020748;28;20226;-73
2023/05/05 02:21:16;;;;;;;6.55;4.50;;;;;;;9.12;100.00;62933.53;5024705;28;20219;-74
2023/05/05 02:23:50;;;;;;;5.55;4.88;;;;;;;9.18;100.00;62940.25;5023423;28;20209;-75
2023/05/05 02:26:21;;;;;;;4.68;4.15;;;;;;;9.21;100.00;62950.47;5026091;28;20538;-74
2023/05/05 02:28:52;;;;;;;4.80;4.15;;;;;;;9.35;100.00;62962.41;5026635;28;20221;-74
2023/05/05 02:31:22;;;;;;;7.13;4.18;;;;;;;9.33;100.00;62963.38;5024404;28;20265;-74
2023/05/05 02:33:51;;;;;;;4.72;4.40;;;;;;;9.40;100.00;62967.56;5021466;28;20199;-74
2023/05/05 02:36:21;;;;;;;4.38;4.05;;;;;;;9.48;100.00;62972.75;5027143;28;20547;-74
2023/05/05 02:38:56;;;;;;;4.53;4.13;;;;;;;9.50;100.00;62982.97;5024264;28;20194;-74
2023/05/05 02:41:25;;;;;;;5.13;4.63;;;;;;;9.49;100.00;62973.81;5023240;28;20289;-74
2023/05/05 02:43:55;;;;;;;4.78;4.20;;;;;;;9.40;100.00;62965.03;5011968;28;20262;-73
2023/05/05 02:46:22;;;;;;;4.78;4.38;;;;;;;9.32;100.00;62956.75;5004922;28;20238;-74
2023/05/05 02:48:49;;;;;;;6.50;4.55;;;;;;;9.40;100.00;62967.56;5019859;28;20206;-74
2023/05/05 02:51:16;;;;;;;5.55;5.00;;;;;;;9.49;100.00;62973.81;5016786;28;20222;-75
2023/05/05 02:53:43;;;;;;;6.22;5.28;;;;;;;9.43;100.00;62970.66;5006079;28;20209;-74
2023/05/05 02:56:21;;;;;;;5.50;4.35;;;;;;;9.54;100.00;62981.53;5007011;28;20223;-74
2023/05/05 02:58:52;;;;;;;3.95;3.65;;;;;;;9.62;100.00;62989.78;5024855;28;20202;-74
2023/05/05 03:01:29;;;;;;;4.25;3.95;;;;;;;9.61;100.00;62989.25;5018890;28;20226;-73
2023/05/05 03:04:04;;;;;;;4.72;4.32;;;;;;;9.70;100.00;62996.03;5019002;28;20499;-73
2023/05/05 03:06:34;;;;;;;4.35;3.88;;;;;;;9.71;100.00;62999.63;5026200;28;20293;-74
2023/05/05 03:09:09;;;;;;;3.95;3.75;;;;;;;9.72;100.00;63000.66;5011866;28;20247;-75
2023/05/05 03:11:44;;;;;;;3.83;3.63;;;;;;;9.74;100.00;63000.19;5009586;28;20285;-74
2023/05/05 03:14:13;;;;;;;3.80;3.60;;;;;;;9.73;100.00;63006.78;5026407;28;20495;-74
2023/05/05 03:16:43;;;;;;;4.15;3.85;;;;;;;9.74;100.00;63004.72;5022178;28;20290;-73
2023/05/05 03:19:12;;;;;;;5.03;4.63;;;;;;;9.78;100.00;63004.31;5024512;28;20195;-75
2023/05/05 03:21:40;;;;;;;4.65;4.25;;;;;;;9.71;100.00;62999.09;5015169;28;20250;-74
2023/05/05 03:24:15;;;;;;;4.50;4.10;;;;;;;9.77;100.00;63003.28;5008106;28;20483;-74
2023/05/05 03:26:45;;;;;;;4.82;4.43;;;;;;;9.77;100.00;63003.28;5017213;28;20292;-73
2023/05/05 03:29:12;;;;;;;4.15;3.85;;;;;;;9.74;100.00;63004.72;5026525;28;20237;-74
2023/05/05 03:31:40;;;;;;;4.15;3.78;;;;;;;9.73;100.00;63004.22;5012331;28;20227;-73
2023/05/05 03:34:07;;;;;;;4.07;3.78;;;;;;;9.79;100.00;63002.28;5034219;28;20210;-74
2023/05/05 03:36:35;;;;;;;4.43;4.10;;;;;;;9.85;100.00;63013.56;5024870;28;20224;-75
2023/05/05 03:39:03;;;;;;;4.95;4.43;;;;;;;9.79;100.00;63004.81;5024545;28;20233;-74
2023/05/05 03:41:30;;;;;;;4.97;4.57;;;;;;;9.85;100.00;63011.56;5024741;28;20286;-76
2023/05/05 03:43:58;;;;;;;4.00;3.70;;;;;;;9.86;100.00;63012.59;5020107;28;20202;-74
2023/05/05 03:46:26;;;;;;;3.50;3.30;;;;;;;9.90;100.00;63016.19;5006219;28;20238;-75
2023/05/05 03:48:55;;;;;;;4.13;3.28;;;;;;;9.90;100.00;63019.28;5010619;28;20210;-75
2023/05/05 03:51:24;;;;;;;4.60;3.50;;;;;;;9.90;100.00;63018.75;5018566;28;20223;-74
2023/05/05 03:53:51;;;;;;;2.90;2.70;;;;;;;9.91;100.00;63012.16;5026011;28;20199;-73
2023/05/05 03:56:18;;;;;;;2.80;2.63;;;;;;;9.89;100.00;63015.16;5025711;28;20218;-75
2023/05/05 03:58:45;;;;;;;3.05;2.85;;;;;;;9.87;100.00;63010.56;5024074;28;20229;-74
2023/05/05 04:01:13;;;;;;;2.90;2.70;;;;;;;9.87;100.00;63010.56;5022885;28;20238;-73
2023/05/05 04:03:40;;;;;;;2.80;2.60;;;;;;;9.99;100.00;63028.56;5008562;28;20203;-73
2023/05/05 04:06:07;;;;;;;3.30;3.10;;;;;;;10.01;100.00;63027.59;5007376;28;20555;-74
2023/05/05 04:08:35;;;;;;;3.33;2.95;;;;;;;10.13;100.00;63042.56;5011560;28;20199;-74
2023/05/05 04:11:02;;;;;;;3.65;3.35;;;;;;;10.17;100.00;63044.66;5025087;28;20277;-74
2023/05/05 04:13:29;;;;;;;3.30;3.10;;;;;;;10.19;100.00;63046.75;5028416;28;20229;-73
2023/05/05 04:15:57;;;;;;;2.70;2.60;;;;;;;10.22;100.00;63049.31;5028802;28;20395;-74
2023/05/05 04:18:27;;;;;;;3.05;2.85;;;;;;;10.29;100.00;63056.56;5022353;28;20269;-75
2023/05/05 04:20:54;;;;;;;3.22;3.03;;;;;;;10.37;100.00;63067.91;5026190;28;20491;-74
2023/05/05 04:23:22;;;;;;;3.90;3.47;;;;;;;10.46;100.00;63077.22;5030632;28;20202;-74
2023/05/05 04:25:49;;;;;;;3.53;3.20;;;;;;;10.53;100.00;63080.91;5029681;28;20234;-75
2023/05/05 04:28:16;;;;;;;3.38;3.13;;;;;;;10.38;100.00;63068.94;5019450;28;20260;-74
2023/05/05 04:30:43;;;;;;;3.28;3.08;;;;;;;10.47;100.00;63075.19;5026839;28;20242;-74
2023/05/05 04:33:11;;;;;;;4.15;3.67;;;;;;;10.56;100.00;63084.50;5028164;28;20219;-73
2023/05/05 04:35:39;;;;;;;4.43;4.03;;;;;;;10.37;100.00;63073.00;5027046;28;20249;-75
2023/05/05 04:38:07;;;;;;;3.40;3.20;;;;;;;10.44;100.00;63072.09;5012077;28;20219;-74
2023/05/05 04:40:38;;;;;;;5.63;3.58;;;;;;;10.32;100.00;63062.22;5028877;28;20262;-71
2023/05/05 04:43:05;;;;;;;4.55;4.10;;;;;;;10.09;100.00;63038.44;5028371;28;20226;-74
2023/05/05 04:45:32;;;;;;;3.92;3.03;;;;;;;10.16;100.00;63043.13;5025325;28;20207;-73
2023/05/05 04:47:59;;;;;;;5.65;4.30;;;;;;;9.94;100.00;63022.91;5027967;28;20242;-71
2023/05/05 04:50:27;;;;;;;6.10;5.60;;;;;;;9.60;100.00;62985.69;5026849;28;20221;-71
2023/05/05 04:52:55;;;;;;;8.60;5.60;;;;;;;9.42;100.00;62969.63;5027369;28;20222;-73
2023/05/05 04:55:22;;;;;;;6.35;5.72;;;;;;;9.22;100.00;62946.94;5028602;28;20568;-72
2023/05/05 04:57:49;;;;;;;6.88;6.05;;;;;;;9.27;100.00;62954.09;5025372;28;20342;-73
2023/05/05 05:00:17;;;;;;;19.88;11.10;;;;;;;9.15;100.00;62939.16;5027205;28;20203;-74
2023/05/05 05:02:44;;;;;;;18.30;13.35;;;;;;;9.37;100.00;62964.44;5028512;28;20226;-75
2023/05/05 05:05:11;;;;;;;12.13;9.20;;;;;;;9.57;100.00;62982.06;5024827;28;20472;-74
2023/05/05 05:07:39;;;;;;;7.78;6.95;;;;;;;9.70;100.00;62995.53;5030271;28;20507;-75
2023/05/05 05:10:09;;;;;;;6.60;5.97;;;;;;;9.85;100.00;63014.09;5030893;28;20429;-74
2023/05/05 05:12:36;;;;;;;6.82;5.65;;;;;;;9.97;100.00;63028.53;5022677;28;20235;-75
2023/05/05 05:15:03;;;;;;;6.72;5.72;;;;;;;10.01;100.00;63027.59;5007810;28;20205;-74
2023/05/05 05:17:30;;;;;;;5.90;5.32;;;;;;;10.11;100.00;63041.00;5008969;28;20219;-75
2023/05/05 05:20:00;;;;;;;5.30;4.90;;;;;;;10.14;100.00;63046.13;5026689;28;20507;-74
2023/05/05 05:22:27;;;;;;;6.55;5.05;;;;;;;10.30;100.00;63060.66;5025249;28;20223;-74
2023/05/05 05:24:54;;;;;;;4.90;4.50;;;;;;;10.44;100.00;63072.09;5028468;28;20234;-74
2023/05/05 05:27:22;;;;;;;4.13;3.72;;;;;;;10.52;100.00;63082.41;5026201;28;20284;-74
2023/05/05 05:29:50;;;;;;;3.60;3.33;;;;;;;10.68;100.00;63096.41;5026677;28;20242;-74
2023/05/05 05:32:17;;;;;;;6.20;3.72;;;;;;;10.79;100.00;63105.78;5019893;28;20233;-73
2023/05/05 05:34:43;;;;;;;3.92;3.58;;;;;;;10.86;100.00;63113.00;5028106;28;20274;-74
2023/05/05 05:37:11;;;;;;;3.75;3.22;;;;;;;10.87;100.00;63119.13;5026727;28;20210;-74
2023/05/05 05:39:38;;;;;;;3.33;3.13;;;;;;;10.99;100.00;63129.00;5027524;28;20336;-75
2023/05/05 05:42:06;;;;;;;3.10;2.90;;;;;;;11.10;100.00;63142.97;5027892;28;20402;-73
2023/05/05 05:44:34;;;;;;;4.93;3.38;;;;;;;11.24;100.00;63156.94;5026328;28;20206;-74
2023/05/05 05:47:01;;;;;;;3.13;2.88;;;;;;;11.45;100.00;63176.13;5027632;28;20238;-74
2023/05/05 05:49:28;;;;;;;2.25;2.13;;;;;;;11.61;100.00;63193.22;5025856;28;20205;-74
2023/05/05 05:51:55;;;;;;;1.92;1.83;;;;;;;11.64;100.00;63203.50;5008683;28;20261;-76
2023/05/05 05:54:22;;;;;;;2.25;2.15;;;;;;;11.73;100.00;63205.16;5018863;28;20206;-73
2023/05/05 05:56:49;;;;;;;1.98;1.88;;;;;;;11.97;100.00;63230.03;5021901;28;20214;-73
2023/05/05 05:59:16;;;;;;;1.70;1.60;;;;;;;11.92;100.00;63221.78;5021298;28;20206;-75
2023/05/05 06:01:44;;;;;;;2.28;1.85;;;;;;;11.87;99.93;63219.16;5020956;28;20223;-72
2023/05/05 06:04:12;;;;;;;1.90;1.80;;;;;;;11.72;100.00;63209.22;5026771;28;20218;-75
2023/05/05 06:06:38;;;;;;;2.03;1.80;;;;;;;11.92;100.00;63229.97;5026964;28;20250;-73
2023/05/05 06:09:05;;;;;;;2.22;2.13;;;;;;;11.49;100.00;63180.78;5021678;28;20203;-73
2023/05/05 06:11:33;;;;;;;1.80;1.70;;;;;;;11.74;100.00;63210.78;5029344;28;20226;-74
2023/05/05 06:14:01;;;;;;;2.67;2.00;;;;;;;11.59;100.00;63188.09;5025495;28;20208;-73
2023/05/05 06:16:28;;;;;;;1.90;1.80;;;;;;;11.75;100.00;63209.28;5020632;28;20226;-75
2023/05/05 06:18:57;;;;;;;2.38;2.28;;;;;;;11.62;100.00;63196.31;5019154;28;20491;-72
2023/05/05 06:21:24;;;;;;;2.80;2.60;;;;;;;11.38;100.00;63171.97;5028332;28;20223;-74
2023/05/05 06:23:51;;;;;;;3.00;2.50;;;;;;;11.62;100.00;63198.84;5025932;28;20207;-73
2023/05/05 06:26:18;;;;;;;2.80;2.13;;;;;;;11.98;100.00;63233.09;5024543;28;20223;-74
2023/05/05 06:28:45;;;;;;;3.35;2.40;;;;;;;12.34;99.27;63270.94;5026185;28;20198;-74
2023/05/05 06:31:26;;;;;;;3.47;2.40;;;;;;;12.64;96.39;63301.53;5025868;28;20249;-72
2023/05/05 06:33:54;;;;;;;2.88;2.67;;;;;;;11.85;97.67;63220.16;5024259;28;20203;-73
2023/05/05 06:36:22;;;;;;;2.97;2.30;;;;;;;12.24;100.00;63258.00;5028310;28;20237;-74
2023/05/05 06:38:50;;;;;;;2.53;2.42;;;;;;;12.45;98.93;63284.91;5025885;28;20255;-75
2023/05/05 06:41:18;;;;;;;2.90;2.70;;;;;;;12.87;96.07;63322.81;5026787;28;20222;-74
2023/05/05 06:43:45;;;;;;;2.53;2.33;;;;;;;13.01;95.05;63336.81;5020724;28;20245;-73
2023/05/05 06:46:12;;;;;;;2.63;2.40;;;;;;;13.34;93.20;63369.03;5012109;28;20258;-74
2023/05/05 06:48:39;;;;;;;2.47;2.17;;;;;;;13.08;90.31;63347.16;5008617;28;20235;-73
2023/05/05 06:51:07;;;;;;;2.40;2.17;;;;;;;12.29;95.87;63265.22;5006100;28;20203;-72
2023/05/05 06:53:35;;;;;;;3.00;2.50;;;;;;;12.09;100.00;63245.03;5022102;28;20203;-74
2023/05/05 06:56:02;;;;;;;3.50;3.30;;;;;;;12.41;99.79;63277.66;5006207;28;20250;-74
2023/05/05 06:58:30;;;;;;;2.28;2.17;;;;;;;12.73;96.29;63316.47;5025716;28;20506;-74
2023/05/05 07:00:58;;;;;;;2.47;2.38;;;;;;;13.00;95.83;63343.97;5023703;28;20250;-74
2023/05/05 07:03:25;;;;;;;2.75;2.53;;;;;;;13.33;92.79;63370.03;5006594;28;20207;-75
2023/05/05 07:05:53;;;;;;;2.70;2.45;;;;;;;13.61;90.10;63409.31;5004522;28;20207;-75
2023/05/05 07:08:20;;;;;;;2.67;2.47;;;;;;;13.65;88.84;63406.31;5004844;28;20234;-72
2023/05/05 07:10:49;;;;;;;2.50;2.30;;;;;;;13.11;90.71;63349.75;5014784;28;20195;-72
2023/05/05 07:13:17;;;;;;;6.22;2.22;;;;;;;12.94;92.11;63335.19;5010166;28;20226;-72
2023/05/05 07:15:45;;;;;;;2.25;2.15;;;;;;;13.24;92.77;63358.13;5008483;28;20205;-74
2023/05/05 07:18:12;;;;;;;2.05;1.95;;;;;;;13.41;89.13;63380.88;5016087;28;20284;-73
2023/05/05 07:20:39;;;;;;;2.20;2.10;;;;;;;13.48;90.15;63388.66;5012894;28;20295;-73
2023/05/05 07:23:06;;;;;;;2.50;1.90;;;;;;;13.87;88.37;63431.19;5016492;28;20231;-72
2023/05/05 07:25:34;;;;;;;2.45;2.25;;;;;;;13.10;90.09;63351.78;5018752;28;20200;-73
2023/05/05 07:28:02;;;;;;;5.68;2.00;;;;;;;13.56;91.51;63391.34;5022378;28;20232;-74
2023/05/05 07:30:29;;;;;;;2.75;2.55;;;;;;;13.38;88.68;63375.22;5023527;28;20203;-72
2023/05/05 07:32:57;;;;;;;2.75;2.42;;;;;;;13.64;91.32;63402.72;5022806;28;20234;-75
2023/05/05 07:35:24;;;;;;;5.05;2.20;;;;;;;14.11;90.78;63450.97;5017515;28;20435;-73
2023/05/05 07:37:51;;;;;;;2.90;2.30;;;;;;;14.52;85.93;63496.13;5009970;28;20241;-74
2023/05/05 07:40:18;;;;;;;2.58;2.38;;;;;;;14.25;85.07;63462.44;5025870;28;20267;-73
2023/05/05 07:42:46;;;;;;;3.67;2.33;;;;;;;14.32;86.98;63469.72;5013536;28;20287;-74
2023/05/05 07:45:15;;;;;;;3.15;2.85;;;;;;;14.87;86.33;63532.50;5017212;28;20435;-73
2023/05/05 07:47:42;;;;;;;4.80;2.53;;;;;;;15.46;81.45;63593.28;5018701;28;20248;-74
2023/05/05 07:50:09;;;;;;;6.88;2.92;;;;;;;15.90;75.16;63638.53;5014125;28;20222;-74
2023/05/05 07:52:37;;;;;;;4.05;2.63;;;;;;;16.22;71.39;63671.81;5016120;28;20226;-74
2023/05/05 07:55:04;;;;;;;3.72;2.78;;;;;;;16.27;70.31;63673.91;5022194;28;20465;-73
2023/05/05 07:57:31;;;;;;;2.40;2.30;;;;;;;16.20;67.92;63667.66;5016622;28;20280;-73
2023/05/05 07:59:58;;;;;;;2.60;2.40;;;;;;;15.56;70.81;63598.03;5014725;28;20198;-72
2023/05/05 08:02:27;;;;;;;3.03;2.15;;;;;;;14.87;75.43;63529.94;5018714;28;20229;-73
2023/05/05 08:04:54;;;;;;;4.38;2.95;;;;;;;14.44;79.87;63489.88;5016517;28;20197;-74
2023/05/05 08:07:21;;;;;;;2.30;2.20;;;;;;;14.27;78.07;63470.16;5014964;28;20234;-73
2023/05/05 08:09:48;;;;;;;2.72;2.53;;;;;;;14.09;84.16;63448.91;5014425;28;20201;-73
2023/05/05 08:12:17;;;;;;;3.47;2.58;;;;;;;13.97;85.12;63439.00;5022455;28;20282;-74
2023/05/05 08:14:44;;;;;;;5.00;2.95;;;;;;;14.02;87.48;63443.69;5015167;28;20265;-73
2023/05/05 08:17:11;;;;;;;3.05;2.70;;;;;;;13.97;87.38;63438.47;5016430;28;20214;-74
2023/05/05 08:19:40;;;;;;;3.05;2.85;;;;;;;13.74;86.05;63415.13;5014252;28;20274;-73
2023/05/05 08:22:07;;;;;;;3.05;2.85;;;;;;;13.72;84.46;63410.50;5017574;28;20219;-74
2023/05/05 08:24:35;;;;;;;3.03;2.83;;;;;;;13.63;78.82;63406.78;5017157;28;20202;-73
2023/05/05 08:27:02;;;;;;;2.67;2.50;;;;;;;13.62;80.67;63405.75;5019298;28;20278;-76
2023/05/05 08:29:29;;;;;;;6.68;2.90;;;;;;;13.40;79.44;63377.28;5014525;28;20202;-75
2023/05/05 08:31:56;;;;;;;2.67;2.47;;;;;;;13.54;77.27;63399.50;5013895;28;20238;-73
2023/05/05 08:34:23;;;;;;;5.80;2.42;;;;;;;13.72;79.71;63421.25;5017022;28;20207;-72
2023/05/05 08:36:51;;;;;;;4.53;3.03;;;;;;;13.73;83.27;63416.66;5014251;28;20409;-74
2023/05/05 08:39:18;;;;;;;3.22;2.70;;;;;;;13.89;81.64;63433.78;5010525;28;20230;-73
2023/05/05 08:41:45;;;;;;;3.92;2.65;;;;;;;13.93;81.73;63437.94;5017262;28;20393;-75
2023/05/05 08:44:13;;;;;;;2.40;2.30;;;;;;;13.86;82.34;63432.69;5014210;28;20214;-73
2023/05/05 08:46:41;;;;;;;3.38;2.40;;;;;;;14.00;78.16;63444.16;5016674;28;20302;-73
2023/05/05 08:49:13;;;;;;;1.60;1.50;;;;;;;14.06;77.13;63450.41;5016733;28;20290;-72
2023/05/05 08:51:43;;;;;;;7.18;2.35;;;;;;;14.21;76.72;63465.97;5014118;28;20220;-72
2023/05/05 08:54:17;;;;;;;2.75;2.00;;;;;;;14.46;74.87;63489.91;5014792;28;20194;-73
2023/05/05 08:56:47;;;;;;;5.20;2.13;;;;;;;14.56;73.28;63500.31;5016854;28;20237;-75
2023/05/05 08:59:16;;;;;;;2.20;2.00;;;;;;;14.50;73.33;63490.97;5014042;28;20258;-73
2023/05/05 09:01:44;;;;;;;2.50;2.30;;;;;;;14.73;70.71;63525.66;5016760;28;20254;-72
2023/05/05 09:04:11;;;;;;;2.17;2.08;;;;;;;14.74;72.97;63516.41;5016661;28;20205;-73
2023/05/05 09:06:39;;;;;;;2.17;2.08;;;;;;;14.77;70.10;63521.59;5019044;28;20218;-72
2023/05/05 09:09:07;;;;;;;2.25;2.05;;;;;;;14.74;70.48;63521.03;5015304;28;20235;-74
2023/05/05 09:11:36;;;;;;;2.08;1.98;;;;;;;15.18;65.24;63563.66;5019271;28;20225;-74
2023/05/05 09:14:03;;;;;;;2.25;2.15;;;;;;;15.41;67.67;63588.09;5012892;28;20393;-74
2023/05/05 09:16:30;;;;;;;2.20;2.10;;;;;;;15.59;67.19;63609.38;5018683;28;20215;-74
2023/05/05 09:19:04;;;;;;;3.45;2.30;;;;;;;14.95;66.77;63540.28;5020181;28;20202;-72
2023/05/05 09:21:32;;;;;;;2.60;2.35;;;;;;;14.98;69.85;63543.41;5016987;28;20554;-75
2023/05/05 09:24:07;;;;;;;2.30;2.20;;;;;;;15.28;69.72;63569.44;5016497;28;20205;-74
2023/05/05 09:26:36;;;;;;;1.98;1.80;;;;;;;15.30;67.48;63579.22;5018609;28;20244;-73
2023/05/05 09:29:04;;;;;;;2.10;2.00;;;;;;;15.75;62.13;63620.88;5016680;28;20433;-74
2023/05/05 09:31:32;;;;;;;1.23;1.23;;;;;;;16.13;57.30;63667.59;5014620;28;20281;-74
2023/05/05 09:34:00;;;;;;;1.20;1.17;;;;;;;16.46;51.85;63698.81;5014284;28;20373;-73
2023/05/05 09:36:46;;;;;;;1.20;1.20;;;;;;;16.08;53.71;63659.81;5013281;28;20215;-75
2023/05/05 09:39:13;;;;;;;2.20;2.10;;;;;;;15.93;61.94;63644.19;5012730;28;20202;-73
2023/05/05 09:41:43;;;;;;;3.00;2.80;;;;;;;15.80;67.75;63625.56;5014455;28;20230;-73
2023/05/05 09:44:11;;;;;;;2.50;2.30;;;;;;;15.38;70.82;63584.44;5014547;28;20390;-73
2023/05/05 09:46:38;;;;;;;2.30;2.20;;;;;;;15.27;71.59;63573.03;5015960;28;20242;-74
2023/05/05 09:49:14;;;;;;;2.38;2.28;;;;;;;15.18;74.06;63558.53;5012255;28;20268;-75
2023/05/05 09:51:41;;;;;;;2.30;2.20;;;;;;;15.14;71.20;63560.03;5010851;28;20241;-75
2023/05/05 09:54:08;;;;;;;3.00;2.45;;;;;;;15.38;70.79;63587.00;5017994;28;20198;-74
2023/05/05 09:56:40;;;;;;;2.42;2.28;;;;;;;15.41;69.67;63588.09;5013363;28;20295;-74
2023/05/05 09:59:11;;;;;;;5.43;2.30;;;;;;;15.51;69.05;63598.50;5012290;28;20206;-74
2023/05/05 10:01:42;;;;;;;2.13;2.03;;;;;;;15.90;70.35;63643.66;5013180;28;20289;-74
2023/05/05 10:04:23;;;;;;;1.65;1.55;;;;;;;16.29;67.19;63681.13;5015284;28;20198;-74
2023/05/05 10:06:50;;;;;;;1.90;1.80;;;;;;;16.90;63.54;63744.63;5018030;28;20218;-73
2023/05/05 10:09:17;;;;;;;2.35;2.15;;;;;;;17.38;60.07;63791.50;5019060;28;20242;-74
2023/05/05 10:11:46;;;;;;;2.10;2.00;;;;;;;16.48;61.37;63698.34;5015149;28;20232;-73
2023/05/05 10:14:16;;;;;;;2.38;2.17;;;;;;;16.22;64.25;63674.38;5016526;28;20198;-73
2023/05/05 10:16:48;;;;;;;2.47;2.28;;;;;;;15.80;63.36;63625.56;5014757;28;20221;-73
2023/05/05 10:19:16;;;;;;;3.38;1.98;;;;;;;15.81;64.43;63627.13;5015250;28;20202;-74
2023/05/05 10:21:47;;;;;;;2.63;2.42;;;;;;;15.78;69.21;63624.00;5014342;28;20243;-73
2023/05/05 10:24:21;;;;;;;2.60;2.40;;;;;;;15.84;67.45;63632.78;5011898;28;20465;-73
2023/05/05 10:26:49;;;;;;;2.95;2.67;;;;;;;15.74;67.13;63619.84;5013220;28;20216;-73
2023/05/05 10:29:37;;;;;;;3.85;2.55;;;;;;;15.69;66.38;63614.63;5016073;28;20382;-72
2023/05/05 10:32:06;;;;;;;3.78;2.20;;;;;;;15.61;68.35;63611.47;5014045;28;20283;-74
2023/05/05 10:34:40;;;;;;;2.58;2.42;;;;;;;15.82;66.33;63630.22;5013832;28;20233;-72
2023/05/05 10:37:07;;;;;;;3.60;2.15;;;;;;;15.81;69.61;63624.03;5017307;28;20293;-74
2023/05/05 10:39:37;;;;;;;4.35;2.35;;;;;;;16.07;66.82;63656.72;5017443;28;20282;-73
2023/05/05 10:42:04;;;;;;;2.40;2.30;;;;;;;16.28;63.39;63677.50;5010190;28;20302;-73
2023/05/05 10:44:35;;;;;;;2.45;2.25;;;;;;;16.65;62.43;63716.53;5012643;28;20194;-73
2023/05/05 10:47:03;;;;;;;2.47;2.28;;;;;;;16.73;61.40;63721.78;5014203;28;20226;-73
2023/05/05 10:49:40;;;;;;;4.05;2.97;;;;;;;16.74;62.85;63722.84;5016279;28;20234;-73
2023/05/05 10:52:18;;;;;;;3.90;2.65;;;;;;;16.02;65.71;63646.38;5020661;28;20285;-73
2023/05/05 10:54:52;;;;;;;2.67;2.47;;;;;;;15.81;64.62;63631.72;5013762;28;20359;-73
2023/05/05 10:57:22;;;;;;;4.20;2.30;;;;;;;15.58;66.74;63603.19;5010645;28;20210;-73
2023/05/05 10:59:51;;;;;;;2.80;2.60;;;;;;;15.91;65.16;63644.72;5011783;28;20453;-72
2023/05/05 11:02:20;;;;;;;2.33;1.90;;;;;;;15.75;63.44;63622.94;5013508;28;20221;-72
2023/05/05 11:05:07;;;;;;;2.67;2.47;;;;;;;15.46;68.84;63593.28;5009599;28;20396;-74
2023/05/05 11:07:34;;;;;;;3.05;2.67;;;;;;;15.59;66.25;63609.38;5019388;28;20474;-73
2023/05/05 11:10:02;;;;;;;2.28;2.17;;;;;;;15.72;66.14;63619.81;5009019;28;20280;-73
2023/05/05 11:12:30;;;;;;;2.17;2.00;;;;;;;15.74;65.52;63619.31;5011833;28;20234;-74
2023/05/05 11:15:37;;;;;;;2.72;2.53;;;;;;;15.52;65.88;63601.56;5014385;28;20216;-72
2023/05/05 11:18:06;;;;;;;3.13;2.47;;;;;;;15.38;68.49;63589.56;5014954;28;20285;-73
2023/05/05 11:21:02;;;;;;;2.42;2.22;;;;;;;15.55;68.85;63599.56;5013167;28;20225;-72
2023/05/05 11:23:30;;;;;;;2.70;2.50;;;;;;;15.83;67.33;63626.09;5015346;28;20214;-75
2023/05/05 11:25:58;;;;;;;2.42;2.33;;;;;;;16.29;63.35;63673.44;5014138;28;20205;-74
2023/05/05 11:28:28;;;;;;;2.13;1.85;;;;;;;16.57;62.16;63705.13;5012687;28;20261;-74
2023/05/05 11:31:21;;;;;;;2.13;2.03;;;;;;;16.40;61.10;63690.53;5016476;28;20195;-72
2023/05/05 11:33:48;;;;;;;2.10;2.00;;;;;;;16.05;65.11;63654.63;5015333;28;20235;-73
2023/05/05 11:36:16;;;;;;;2.38;2.28;;;;;;;15.66;67.01;63613.56;5013279;28;20281;-72
2023/05/05 11:39:07;;;;;;;2.50;1.90;;;;;;;15.80;66.93;63628.13;5013492;28;20210;-73
2023/05/05 11:41:47;;;;;;;2.78;2.20;;;;;;;16.24;65.40;63676.44;5014700;28;20218;-73